• Join FlightAware (Why Join?)
  • Login
  • US Flag 
09:54AM EDT


 

Airport Tracker/Info


-or-


 

Live Flight TrackerFlight Track Log ✈ UAL1148 ✈ 26-Apr-2012 ✈ KIAH - KTUL

Flight Track Log - Related Links

Times and Time Zones

All times are in EDT time to prevent confusion due to time zone crossing. See the UAL1148 flight status page for this flight to view local times or setup timezone preferences in your user account.

Time Position Orientation Groundspeed Altitude Reporting Facility
EDT Latitude Longitude Course Direction KTS MPH feet Rate Location/Type
08:57PM 30.0110 -95.3491 205° Southwest  Level FlightAware Approximate
08:58PM 29.9425 -95.3858 312° West 229 264 3,400  Level Houston Center
08:59PM 29.9747 -95.4278 305° West 227 261 3,900 1,680 Climbing Houston Center
09:00PM 30.0186 -95.5014 326° Northwest 315 362 6,500 3,060 Climbing Houston Center
09:01PM 30.0778 -95.5467 349° North 320 368 10,100 3,060 Climbing Houston Center
09:02PM 30.1647 -95.5669 348° North 314 361 12,700 3,060 Climbing Houston Center
09:03PM 30.2603 -95.5897 349° North 324 373 16,200 3,360 Climbing Houston Center
09:04PM 30.3556 -95.6103 348° North 336 387 19,500 2,880 Climbing Houston Center
09:05PM 30.4569 -95.6358 351° North 354 407 22,100 2,340 Climbing Houston Center
09:06PM 30.5628 -95.6544 350° North 365 420 24,200 1,920 Climbing Houston Center
09:07PM 30.6750 -95.6781 351° North 388 447 26,000 1,920 Climbing Houston Center
09:09PM 30.9453 -95.7253 351° North 436 502 30,500 1,980 Climbing Fort Worth Center
09:10PM 31.0686 -95.7472 351° North 431 496 32,400 2,100 Climbing Fort Worth Center
09:11PM 31.1858 -95.7694 351° North 431 496 34,800 2,040 Climbing Fort Worth Center
09:12PM 31.3011 -95.7917 350° North 424 488 36,500 1,740 Climbing Fort Worth Center
09:13PM 31.4119 -95.8142 351° North 414 476 38,300 1,740 Climbing Fort Worth Center
09:14PM 31.5144 -95.8342 350° North 388 447 40,000 1,140 Climbing Fort Worth Center
09:15PM 31.6108 -95.8547 349° North 388 447 40,600 360 Climbing Fort Worth Center
09:16PM 31.7261 -95.8819 352° North 382 440 40,800 180 Climbing Fort Worth Center
09:17PM 31.8369 -95.8997 350° North 387 445 41,000 60 Climbing Fort Worth Center
09:18PM 31.9456 -95.9222 353° North 393 452 41,000  Level Fort Worth Center
09:19PM 32.0544 -95.9378 350° North 393 452 41,000  Level Fort Worth Center
09:20PM 32.1633 -95.9606 352° North 387 445 41,000  Level Fort Worth Center
09:21PM 32.2700 -95.9786 351° North 387 445 41,000  Level Fort Worth Center
09:22PM 32.3786 -95.9989 349° North 387 445 41,000  Level Fort Worth Center
09:23PM 32.4833 -96.0219 351° North 387 445 41,000  Level Fort Worth Center
09:24PM 32.5900 -96.0425 351° North 387 445 41,000  Level Fort Worth Center
09:25PM 32.6967 -96.0631 350° North 392 451 41,000  Level Fort Worth Center
09:26PM 32.8033 -96.0861 351° North 386 444 41,000  Level Fort Worth Center
09:27PM 32.9122 -96.1069 350° North 391 450 41,000  Level Fort Worth Center
09:28PM 33.0083 -96.1278 351° North 391 450 41,000  Level Fort Worth Center
09:29PM 33.1192 -96.1483 350° North 391 450 41,000  Level Fort Worth Center
09:30PM 33.2303 -96.1717 351° North 391 450 41,000  Level Fort Worth Center
09:31PM 33.3389 -96.1925 350° North 397 457 41,000  Level Fort Worth Center
09:32PM 33.4497 -96.2158 355° North 397 457 41,000  Level Fort Worth Center
09:33PM 33.5606 -96.2269 North 397 457 41,000  Level Fort Worth Center
09:34PM 33.6750 -96.2128 North 398 458 41,000  Level Fort Worth Center
09:35PM 33.7856 -96.1939 North 406 467 41,000 -180 Level Fort Worth Center
09:36PM 33.8981 -96.1797 North 406 467 40,700 -600 Descending Fort Worth Center
09:37PM 34.0231 -96.1581 North 406 467 39,800 -1,500 Descending Fort Worth Center
09:38PM 34.1189 -96.1392 North 394 453 37,800 -1,920 Descending Fort Worth Center
09:39PM 34.2253 -96.1250 10° North 385 443 36,000 -1,860 Descending Fort Worth Center
09:40PM 34.3458 -96.1006 North 390 449 34,100 -1,920 Descending Fort Worth Center
09:41PM 34.4500 -96.0839 North 390 449 32,200 -1,860 Descending Fort Worth Center
09:42PM 34.5522 -96.0697 North 384 442 30,400 -1,800 Descending Fort Worth Center
09:43PM 34.6522 -96.0528 North 378 435 28,600 -1,800 Descending Fort Worth Center
09:44PM 34.7522 -96.0361 North 366 421 26,900 -1,740 Descending Fort Worth Center
09:45PM 34.8478 -96.0194 North 354 407 25,200 -1,740 Descending Fort Worth Center
09:46PM 34.9417 -96.0028 North 347 399 23,500 -1,500 Descending Fort Worth Center
09:47PM 35.0228 -95.9886 North 342 394 22,200 -1,500 Descending Fort Worth Center
09:48PM 35.1122 -95.9719 North 336 387 20,600 -1,620 Descending Fort Worth Center
09:49PM 35.2017 -95.9578 North 326 375 19,000 -1,680 Descending Fort Worth Center
09:50PM 35.2872 -95.9436 North 321 369 17,300 -1,680 Descending Fort Worth Center
09:52PM 35.4242 -95.9206 North 311 358 14,900 -1,560 Descending Kansas City Center
09:53PM 35.5225 -95.9044 North 314 361 13,200 -1,500 Descending Kansas City Center
09:54PM 35.6083 -95.8933 11° North 309 356 11,800 -1,440 Descending Kansas City Center
09:55PM 35.6897 -95.8742 North 300 345 10,400 -1,500 Descending Kansas City Center
09:56PM 35.7714 -95.8628 North 296 341 8,800 -1,560 Descending Kansas City Center
09:57PM 35.8528 -95.8489 North 291 335 7,300 -1,440 Descending Kansas City Center
09:58PM 35.9364 -95.8322 North 290 334 6,000 -720 Descending Kansas City Center
09:59PM 36.0056 -95.8233 North 263 303 6,000 -420 Level Kansas City Center
10:00PM 36.0639 -95.8139 10° North 245 282 5,300 -720 Descending Kansas City Center
10:00PM 36.1203 -95.8019 North 225 259 4,800 -840 Descending Kansas City Center
10:02PM 36.1789 -95.7928 North 205 236 3,800 -660 Descending Kansas City Center
10:03PM 36.2353 -95.7911 North 191 220 3,500 -300 Descending Kansas City Center